Decoded Metar for CYSJ (ST. JOHN in NB, CANADA) (IATA:YSJ) | Meteo·Mobile Aviation Weather
aviador You're here:

CYSJ Decoded Metar

ST. JOHN in NB, CANADA
Report Time2019-10-22 13:00:00
UTC Time2019-10-22 14:09:58
Flight Rules Old
Wind030° at 03 kt
W.Decomp.*RWY 05: 3.0 kt HW 0.1 kt LCW
RWY 32: 0.1 kt HW 3.0 kt RCW
Visibility9999 m
Phenomena:N/A
Clouds:Few 012 Hf
Broken 230 Hf
Expected CloudBase > 400 ft AGL from Temp-Dew spread
Ceiling23,000 ft
Temp08°C (ISA -6)
Dew Point07°C (93% RH)
AAT6.2°C
QNH1025 hPa
Density Alt-666 ft
Elevation358 ft
Report Wrong Elevation
Raw Report
CYSJ 221300Z 03003KT 15SM FEW012 BKN230 08/07 A3027 RMK SC1CS6
SLP255=

Extra information for CYSJ:More info

Metar Taf Metar & Taf Last 4 Metars F.Rules Stats Wind Profile Meteogram Temp Stats Airport Information Weather charts Add Link Nearby VenuesMetar ALERT Operation Metar Decoded Social comments